createdAt,value
2018-02-08T00:01:10.386Z,40.02
2018-02-08T00:04:12.299Z,40.05
2018-02-08T00:07:14.279Z,40.11
2018-02-08T00:10:16.283Z,40.01
2018-02-08T00:13:18.179Z,40.12
2018-02-08T00:16:20.103Z,40.08
2018-02-08T00:19:22.070Z,40.15
2018-02-08T00:22:23.971Z,40.07
2018-02-08T00:25:25.874Z,40.03
2018-02-08T00:28:27.763Z,40.07
2018-02-08T00:31:29.646Z,40.10
2018-02-08T00:34:31.543Z,40.06
2018-02-08T00:37:33.564Z,40.12
2018-02-08T00:40:35.442Z,40.09
2018-02-08T00:43:37.443Z,40.04
2018-02-08T00:46:39.339Z,39.95
2018-02-08T00:49:41.328Z,40.10
2018-02-08T00:52:43.226Z,40.07
2018-02-08T00:55:45.135Z,40.10
2018-02-08T00:58:47.111Z,40.09
2018-02-08T01:01:49.023Z,40.10
2018-02-08T01:04:51.015Z,40.00
2018-02-08T01:07:53.011Z,39.97
2018-02-08T01:10:55.017Z,40.06
2018-02-08T01:13:57.011Z,40.11
2018-02-08T01:16:58.995Z,40.10
2018-02-08T01:20:00.901Z,40.00
2018-02-08T01:23:02.808Z,39.94
2018-02-08T01:26:04.783Z,40.04
2018-02-08T01:29:06.685Z,40.09
2018-02-08T01:32:08.943Z,40.07
2018-02-08T01:35:11.014Z,40.12
2018-02-08T01:38:12.976Z,40.21
2018-02-08T01:41:14.914Z,40.04
2018-02-08T01:44:16.811Z,40.10
2018-02-08T01:47:18.708Z,40.12
2018-02-08T01:50:20.603Z,40.10
2018-02-08T01:53:22.506Z,40.07
2018-02-08T01:56:24.499Z,40.05
2018-02-08T01:59:26.394Z,40.00
2018-02-08T02:02:28.528Z,40.05
2018-02-08T02:05:30.496Z,40.15
2018-02-08T02:08:32.491Z,40.02
2018-02-08T02:11:34.375Z,40.09
2018-02-08T02:14:36.271Z,40.08
2018-02-08T02:17:38.177Z,40.10
2018-02-08T02:20:40.067Z,40.10
2018-02-08T02:23:42.058Z,39.99
2018-02-08T02:26:43.967Z,40.02
2018-02-08T02:29:45.867Z,40.05
2018-02-08T02:32:47.768Z,40.05
2018-02-08T02:35:49.670Z,40.14
2018-02-08T02:38:51.555Z,39.96
2018-02-08T02:41:53.443Z,40.05
2018-02-08T02:44:55.355Z,40.06
2018-02-08T02:47:57.270Z,40.08
2018-02-08T02:50:59.172Z,40.08
2018-02-08T02:54:01.231Z,40.08
2018-02-08T02:57:03.206Z,40.07
2018-02-08T03:00:05.124Z,40.10
2018-02-08T03:03:07.015Z,40.00
2018-02-08T03:06:08.935Z,40.15
2018-02-08T03:09:10.904Z,40.10
2018-02-08T03:12:12.859Z,40.11
2018-02-08T03:15:14.804Z,40.06
2018-02-08T03:18:16.791Z,40.03
2018-02-08T03:21:18.770Z,40.13
2018-02-08T03:24:20.679Z,40.14
2018-02-08T03:27:22.586Z,40.05
2018-02-08T03:30:24.523Z,40.04
2018-02-08T03:33:26.486Z,40.07
2018-02-08T03:36:28.392Z,40.08
2018-02-08T03:39:30.527Z,39.93
2018-02-08T03:42:32.437Z,40.04
2018-02-08T03:45:34.340Z,40.15
2018-02-08T03:48:36.235Z,40.06
2018-02-08T03:51:38.264Z,40.04
2018-02-08T03:54:40.234Z,40.06
2018-02-08T03:57:42.144Z,40.19
2018-02-08T04:00:44.114Z,40.03
2018-02-08T04:03:46.011Z,39.96
2018-02-08T04:06:47.894Z,40.12
2018-02-08T04:09:49.798Z,40.13
2018-02-08T04:12:51.696Z,40.20
2018-02-08T04:15:53.594Z,39.96
2018-02-08T04:18:55.718Z,40.15
2018-02-08T04:21:57.692Z,40.04
2018-02-08T04:24:59.574Z,40.03
2018-02-08T04:28:01.479Z,40.01
2018-02-08T04:31:03.378Z,39.98
2018-02-08T04:34:05.373Z,40.12
2018-02-08T04:37:07.262Z,40.05
2018-02-08T04:40:09.270Z,40.10
2018-02-08T04:43:11.146Z,40.04
2018-02-08T04:46:13.066Z,40.06
2018-02-08T04:49:14.939Z,40.00
2018-02-08T04:52:16.847Z,39.96
2018-02-08T04:55:18.759Z,40.03
2018-02-08T04:58:20.740Z,40.11
2018-02-08T05:01:22.742Z,40.06
2018-02-08T05:04:24.643Z,40.10
2018-02-08T05:07:26.534Z,40.21
2018-02-08T05:10:28.427Z,40.20
2018-02-08T05:13:30.427Z,40.10
2018-02-08T05:16:32.423Z,40.18
2018-02-08T05:19:34.420Z,40.16
2018-02-08T05:22:36.314Z,40.23
2018-02-08T05:25:38.227Z,40.18
2018-02-08T05:28:40.234Z,40.21
2018-02-08T05:31:42.163Z,40.30
2018-02-08T05:34:44.123Z,40.29
2018-02-08T05:37:46.023Z,40.21
2018-02-08T05:40:48.034Z,40.21
2018-02-08T05:43:49.921Z,40.24
2018-02-08T05:46:51.818Z,40.10
2018-02-08T05:49:53.701Z,40.09
2018-02-08T05:52:55.660Z,40.27
2018-02-08T05:55:57.519Z,40.05
2018-02-08T05:58:59.419Z,39.97
2018-02-08T06:02:01.408Z,39.95
2018-02-08T06:05:03.312Z,39.97
2018-02-08T06:08:05.207Z,39.96
2018-02-08T06:11:07.103Z,39.89
2018-02-08T06:14:09.011Z,39.84
2018-02-08T06:17:10.996Z,39.90
2018-02-08T06:20:12.891Z,39.91
2018-02-08T06:23:14.787Z,39.90
2018-02-08T06:26:16.720Z,39.92
2018-02-08T06:29:18.708Z,39.83
2018-02-08T06:32:20.611Z,39.83
2018-02-08T06:35:22.515Z,39.82
2018-02-08T06:38:24.390Z,39.89
2018-02-08T06:41:26.279Z,39.92
2018-02-08T06:44:28.154Z,39.83
2018-02-08T06:47:30.039Z,39.84
2018-02-08T06:50:31.915Z,39.80
2018-02-08T06:53:33.804Z,39.85
2018-02-08T06:56:35.695Z,39.91
2018-02-08T06:59:37.567Z,39.83
2018-02-08T07:02:39.448Z,39.77
2018-02-08T07:05:41.382Z,39.77
2018-02-08T07:08:43.267Z,39.76
2018-02-08T07:11:45.154Z,39.71
2018-02-08T07:14:47.023Z,39.73
2018-02-08T07:17:48.899Z,39.73
2018-02-08T07:20:50.804Z,39.76
2018-02-08T07:23:52.690Z,39.67
2018-02-08T07:26:54.583Z,39.85
2018-02-08T07:29:56.455Z,39.71
2018-02-08T07:32:58.349Z,39.70
2018-02-08T07:36:00.227Z,39.72
2018-02-08T07:39:02.114Z,39.75
2018-02-08T07:42:03.996Z,39.70
2018-02-08T07:45:05.906Z,39.77
2018-02-08T07:48:07.787Z,39.75
2018-02-08T07:51:09.665Z,39.82
2018-02-08T07:54:11.551Z,39.86
2018-02-08T07:57:13.435Z,39.95
2018-02-08T08:00:15.322Z,39.75
2018-02-08T08:03:17.210Z,39.46
2018-02-08T08:06:19.091Z,38.89
2018-02-08T08:09:20.972Z,38.55
2018-02-08T08:12:22.860Z,38.80
2018-02-08T08:15:24.762Z,39.08
2018-02-08T08:18:26.635Z,39.32
2018-02-08T08:21:28.519Z,39.40
2018-02-08T08:24:30.399Z,39.66
2018-02-08T08:27:32.279Z,39.69
2018-02-08T08:30:34.152Z,39.79
2018-02-08T08:33:36.043Z,39.83
2018-02-08T08:36:37.934Z,39.93
2018-02-08T08:39:39.815Z,39.91
2018-02-08T08:42:41.704Z,39.99
2018-02-08T08:45:43.570Z,39.99
2018-02-08T08:48:45.458Z,40.04
2018-02-08T08:51:47.363Z,39.98
2018-02-08T08:54:49.258Z,39.83
2018-02-08T08:57:51.124Z,39.91
2018-02-08T09:00:53.005Z,39.88
2018-02-08T09:03:54.894Z,39.97
2018-02-08T09:06:56.767Z,39.93
2018-02-08T09:09:58.650Z,39.96
2018-02-08T09:13:00.535Z,39.92
2018-02-08T09:16:02.411Z,39.94
2018-02-08T09:19:04.309Z,39.76
2018-02-08T09:22:06.207Z,39.83
2018-02-08T09:25:08.081Z,39.81
2018-02-08T09:28:10.227Z,39.94
2018-02-08T09:31:12.106Z,39.87
2018-02-08T09:34:13.984Z,39.96
2018-02-08T09:37:15.871Z,39.93
2018-02-08T09:40:17.759Z,39.76
2018-02-08T09:43:19.631Z,39.86
2018-02-08T09:46:21.511Z,39.84
2018-02-08T09:49:23.404Z,39.84
2018-02-08T09:52:25.263Z,39.87
2018-02-08T09:55:27.151Z,39.92
2018-02-08T09:58:29.020Z,39.85
2018-02-08T10:01:30.904Z,39.85
2018-02-08T10:04:32.792Z,39.78
2018-02-08T10:07:34.674Z,39.99
2018-02-08T10:10:36.551Z,39.92
2018-02-08T10:13:38.439Z,39.85
2018-02-08T10:16:40.321Z,39.94
2018-02-08T10:19:42.198Z,39.88
2018-02-08T10:22:44.084Z,39.91
2018-02-08T10:25:45.963Z,39.83
2018-02-08T10:28:47.899Z,39.91
2018-02-08T10:31:49.819Z,39.81
2018-02-08T10:34:51.699Z,39.89
2018-02-08T10:37:53.582Z,39.89
2018-02-08T10:40:55.504Z,39.98
2018-02-08T10:43:57.390Z,39.82
2018-02-08T10:46:59.298Z,39.82
2018-02-08T10:50:01.240Z,39.84
2018-02-08T10:53:03.067Z,39.89
2018-02-08T10:56:04.943Z,39.96
2018-02-08T10:59:06.843Z,39.92
2018-02-08T11:02:08.727Z,39.87
2018-02-08T11:05:10.619Z,39.87
2018-02-08T11:08:12.510Z,39.90
2018-02-08T11:11:14.411Z,39.83
2018-02-08T11:14:16.313Z,39.88
2018-02-08T11:17:18.206Z,39.90
2018-02-08T11:20:20.151Z,39.94
2018-02-08T11:23:22.031Z,39.84
2018-02-08T11:26:23.911Z,39.79
2018-02-08T11:29:25.787Z,39.76
2018-02-08T11:32:27.731Z,39.72
2018-02-08T11:35:29.612Z,39.87
2018-02-08T11:38:31.495Z,39.91
2018-02-08T11:41:33.383Z,39.88
2018-02-08T11:44:35.264Z,39.87
2018-02-08T11:47:37.143Z,39.68
2018-02-08T11:50:39.055Z,39.79
2018-02-08T11:53:40.938Z,39.83
2018-02-08T11:56:42.827Z,39.70
2018-02-08T11:59:44.710Z,39.81
2018-02-08T12:02:46.588Z,39.79
2018-02-08T12:05:48.470Z,39.86
2018-02-08T12:08:50.350Z,39.86
2018-02-08T12:11:52.231Z,39.72
2018-02-08T12:14:54.119Z,39.75
2018-02-08T12:17:55.990Z,39.74
2018-02-08T12:20:57.887Z,39.76
2018-02-08T12:23:59.762Z,39.76
2018-02-08T12:27:01.633Z,39.75
2018-02-08T12:30:03.518Z,39.80
2018-02-08T12:33:05.395Z,39.83
2018-02-08T12:36:07.276Z,39.74
2018-02-08T12:39:09.171Z,39.79
2018-02-08T12:42:11.106Z,39.77
2018-02-08T12:45:12.959Z,39.82
2018-02-08T12:48:14.843Z,39.79
2018-02-08T12:51:16.730Z,39.82
2018-02-08T12:54:18.605Z,39.81
2018-02-08T12:57:20.478Z,39.80
2018-02-08T13:00:22.403Z,39.83
2018-02-08T13:03:24.278Z,39.81
2018-02-08T13:06:26.155Z,39.76
2018-02-08T13:09:28.039Z,39.72
2018-02-08T13:12:29.935Z,39.81
2018-02-08T13:15:31.814Z,39.80
2018-02-08T13:18:33.715Z,39.76
2018-02-08T13:21:35.591Z,39.87
2018-02-08T13:24:37.715Z,39.86
2018-02-08T13:27:39.595Z,39.88
2018-02-08T13:30:41.478Z,39.83
2018-02-08T13:33:43.358Z,39.78
2018-02-08T13:36:45.276Z,39.78
2018-02-08T13:39:47.190Z,39.80
2018-02-08T13:42:49.217Z,39.85
2018-02-08T13:45:51.125Z,39.88
2018-02-08T13:48:53.043Z,39.87
2018-02-08T13:51:55.111Z,39.83
2018-02-08T13:54:57.010Z,39.82
2018-02-08T13:57:59.035Z,39.79
2018-02-08T14:01:00.930Z,39.96
2018-02-08T14:04:02.808Z,39.80
2018-02-08T14:07:04.678Z,39.71
2018-02-08T14:10:06.579Z,39.84
2018-02-08T14:13:08.502Z,39.84
2018-02-08T14:16:10.355Z,39.73
2018-02-08T14:19:12.249Z,39.87
2018-02-08T14:22:14.126Z,39.89
2018-02-08T14:25:15.999Z,39.85
2018-02-08T14:28:17.891Z,39.93
2018-02-08T14:31:19.835Z,39.90
2018-02-08T14:34:21.731Z,39.74
2018-02-08T14:37:23.627Z,39.83
2018-02-08T14:40:25.514Z,39.82
2018-02-08T14:43:27.390Z,39.84
2018-02-08T14:46:29.270Z,40.01
2018-02-08T14:49:31.164Z,39.92
2018-02-08T14:52:33.040Z,39.78
2018-02-08T14:55:34.923Z,39.77
2018-02-08T14:58:36.803Z,39.75
2018-02-08T15:01:38.699Z,39.79
2018-02-08T15:04:40.583Z,39.57
2018-02-08T15:07:42.462Z,39.70
2018-02-08T15:10:44.370Z,39.87
2018-02-08T15:13:46.252Z,39.76
2018-02-08T15:16:48.163Z,39.91
2018-02-08T15:19:50.051Z,39.87
2018-02-08T15:22:51.960Z,39.78
2018-02-08T15:25:53.846Z,39.74
2018-02-08T15:28:55.731Z,39.75
2018-02-08T15:31:57.647Z,39.62
2018-02-08T15:34:59.546Z,39.75
2018-02-08T15:38:01.431Z,39.80
2018-02-08T15:41:03.323Z,39.53
2018-02-08T15:44:05.207Z,39.58
2018-02-08T15:47:07.095Z,39.74
2018-02-08T15:50:08.975Z,39.69
2018-02-08T15:53:10.879Z,39.75
2018-02-08T15:56:12.759Z,39.73
2018-02-08T15:59:14.655Z,39.88
2018-02-08T16:02:16.534Z,39.64
2018-02-08T16:05:18.815Z,39.84
2018-02-08T16:08:20.698Z,39.61
2018-02-08T16:11:22.571Z,39.69
2018-02-08T16:14:24.468Z,39.78
2018-02-08T16:17:26.343Z,39.84
2018-02-08T16:20:28.240Z,39.81
2018-02-08T16:23:30.126Z,39.88
2018-02-08T16:26:32.032Z,39.76
2018-02-08T16:29:33.927Z,39.72
2018-02-08T16:32:35.798Z,39.80
2018-02-08T16:35:37.724Z,39.84
2018-02-08T16:38:39.566Z,39.91
2018-02-08T16:41:41.452Z,39.67
2018-02-08T16:44:43.355Z,39.76
2018-02-08T16:47:45.254Z,39.77
2018-02-08T16:50:47.140Z,39.75
2018-02-08T16:53:49.023Z,39.91
2018-02-08T16:56:50.934Z,39.80
2018-02-08T16:59:52.782Z,39.78
2018-02-08T17:02:54.663Z,39.82
2018-02-08T17:05:56.552Z,39.82
2018-02-08T17:08:58.435Z,39.90
2018-02-08T17:12:00.335Z,39.90
2018-02-08T17:15:02.330Z,39.81
2018-02-08T17:18:04.319Z,39.92
2018-02-08T17:21:06.238Z,39.89
2018-02-08T17:24:08.183Z,40.00
2018-02-08T17:27:10.054Z,39.90
2018-02-08T17:30:11.951Z,39.61
2018-02-08T17:33:13.833Z,39.70
2018-02-08T17:36:15.725Z,39.83
2018-02-08T17:39:17.611Z,40.06
2018-02-08T17:42:19.531Z,39.83
2018-02-08T17:45:21.423Z,39.97
2018-02-08T17:48:23.303Z,39.95
2018-02-08T17:51:25.190Z,39.89
2018-02-08T17:54:27.080Z,40.12
2018-02-08T17:57:28.983Z,39.92
2018-02-08T18:00:30.995Z,40.00
2018-02-08T18:03:32.971Z,39.96
2018-02-08T18:06:34.963Z,39.82
2018-02-08T18:09:36.959Z,39.83
2018-02-08T18:12:38.896Z,39.90
2018-02-08T18:15:40.775Z,39.80
2018-02-08T18:18:42.660Z,39.37
2018-02-08T18:21:44.559Z,39.84
2018-02-08T18:24:46.452Z,39.69
2018-02-08T18:27:48.343Z,39.90
2018-02-08T18:30:50.231Z,39.97
2018-02-08T18:33:52.111Z,39.91
2018-02-08T18:36:53.995Z,39.53
2018-02-08T18:39:55.881Z,39.72
2018-02-08T18:42:58.048Z,39.56
2018-02-08T18:45:59.958Z,39.51
2018-02-08T18:49:01.843Z,39.54
2018-02-08T18:52:03.723Z,39.56
2018-02-08T18:55:05.611Z,39.58
2018-02-08T18:58:07.489Z,39.59
2018-02-08T19:01:09.372Z,39.48
2018-02-08T19:04:11.280Z,39.55
2018-02-08T19:07:13.167Z,39.61
2018-02-08T19:10:15.050Z,39.69
2018-02-08T19:13:16.934Z,39.53
2018-02-08T19:16:18.836Z,39.73
2018-02-08T19:19:21.607Z,39.43
2018-02-08T19:22:23.483Z,39.39
2018-02-08T19:25:25.367Z,39.78
2018-02-08T19:28:27.257Z,39.56
2018-02-08T19:31:29.151Z,39.42
2018-02-08T19:34:31.067Z,39.05
2018-02-08T19:37:32.968Z,39.35
2018-02-08T19:40:35.384Z,39.07
2018-02-08T19:43:37.270Z,39.23
2018-02-08T19:46:39.171Z,38.72
2018-02-08T19:49:41.376Z,38.62
2018-02-08T19:52:43.255Z,38.86
2018-02-08T19:55:45.134Z,38.64
2018-02-08T20:01:48.611Z,38.70
2018-02-08T20:04:50.504Z,38.62
2018-02-08T20:07:52.413Z,38.51
2018-02-08T20:10:54.307Z,38.43
2018-02-08T20:13:56.222Z,38.07
2018-02-08T20:16:58.090Z,37.93
2018-02-08T20:19:59.971Z,37.90
2018-02-08T20:23:01.890Z,38.16
2018-02-08T20:26:03.771Z,38.28
2018-02-08T20:29:05.740Z,38.31
2018-02-08T20:32:07.619Z,38.33
2018-02-08T20:35:09.487Z,38.42
2018-02-08T20:38:11.399Z,38.47
2018-02-08T20:41:13.299Z,38.77
2018-02-08T20:44:15.187Z,39.04
2018-02-08T20:47:17.147Z,39.06
2018-02-08T20:50:19.093Z,39.24
2018-02-08T20:53:20.961Z,39.31
2018-02-08T20:56:22.835Z,39.30
2018-02-08T20:59:24.718Z,39.40
2018-02-08T21:02:26.600Z,39.43
2018-02-08T21:05:28.487Z,39.44
2018-02-08T21:08:30.396Z,39.44
2018-02-08T21:11:32.316Z,39.40
2018-02-08T21:14:34.255Z,39.55
2018-02-08T21:17:36.142Z,39.64
2018-02-08T21:20:38.051Z,39.83
2018-02-08T21:23:39.939Z,39.85
2018-02-08T21:26:42.883Z,39.82
2018-02-08T21:29:44.878Z,39.79
2018-02-08T21:32:46.869Z,39.98
2018-02-08T21:35:48.862Z,39.90
2018-02-08T21:38:50.763Z,39.84
2018-02-08T21:41:52.770Z,39.83
2018-02-08T21:44:54.751Z,39.84
2018-02-08T21:47:56.679Z,39.87
2018-02-08T21:50:58.684Z,39.80
2018-02-08T21:54:00.670Z,39.91
2018-02-08T21:57:02.646Z,39.80
2018-02-08T22:00:04.659Z,39.89
2018-02-08T22:03:06.635Z,39.89
2018-02-08T22:06:08.523Z,39.91
2018-02-08T22:09:10.428Z,39.80
2018-02-08T22:12:12.330Z,39.96
2018-02-08T22:15:14.223Z,39.82
2018-02-08T22:18:16.222Z,39.89
2018-02-08T22:21:18.128Z,39.80
2018-02-08T22:24:20.094Z,39.91
2018-02-08T22:27:22.007Z,39.79
2018-02-08T22:30:23.914Z,39.92
2018-02-08T22:33:25.822Z,39.77
2018-02-08T22:36:27.883Z,39.77
2018-02-08T22:39:29.822Z,39.80
2018-02-08T22:42:31.719Z,39.81
2018-02-08T22:45:33.711Z,39.88
2018-02-08T22:48:35.607Z,39.77
2018-02-08T22:51:37.503Z,39.83
2018-02-08T22:54:39.499Z,39.82
2018-02-08T22:57:41.423Z,39.88
2018-02-08T23:00:43.399Z,39.88
2018-02-08T23:03:45.542Z,39.89
2018-02-08T23:06:47.502Z,39.87
2018-02-08T23:09:49.494Z,39.84
2018-02-08T23:12:51.495Z,39.86
2018-02-08T23:15:53.490Z,39.85
2018-02-08T23:18:55.407Z,39.85
2018-02-08T23:21:57.382Z,39.80
2018-02-08T23:24:59.282Z,39.82
2018-02-08T23:28:01.163Z,39.80
2018-02-08T23:31:03.068Z,39.92
2018-02-08T23:34:04.966Z,39.81
2018-02-08T23:37:06.972Z,39.88
2018-02-08T23:40:08.958Z,39.94
2018-02-08T23:43:10.878Z,39.68
2018-02-08T23:46:12.846Z,39.80
2018-02-08T23:49:15.158Z,39.84
2018-02-08T23:52:17.154Z,39.84
2018-02-08T23:55:19.390Z,39.75
2018-02-08T23:58:21.363Z,39.77
